This is the latest recevied weather packets stored in our database for station/object KB1RMA-4. If no packets are shown the sender has not sent any weather packets the latest 10 day(s).
| Time | Temp. | Humidity | Pressure | Rain* | Wind** | Luminosity | Snow |
|---|---|---|---|---|---|---|---|
| 1788042843 | 22.22° C | 59% | 1020.6 hPa | 0 mm | - | 24 W/m² | - |
| 1788042542 | 22.22° C | 58% | 1020.6 hPa | 0 mm | - | 27 W/m² | - |
| 1788042237 | 22.22° C | 57% | 1020.6 hPa | 0 mm | - | 29 W/m² | - |
| 1788041944 | 22.78° C | 56% | 1020.5 hPa | 0 mm | - | 31 W/m² | - |
| 1788041633 | 22.78° C | 56% | 1020.6 hPa | 0 mm | - | 33 W/m² | - |
| 1788041328 | 22.78° C | 55% | 1020.8 hPa | 0 mm | - | 34 W/m² | - |
| 1788041027 | 23.33° C | 55% | 1020.6 hPa | 0 mm | - | 36 W/m² | - |
| 1788040726 | 23.33° C | 55% | 1020.7 hPa | 0 mm | - | 37 W/m² | - |
| 1788040421 | 23.33° C | 55% | 1020.6 hPa | 0 mm | - | 39 W/m² | - |
| 1788040117 | 23.89° C | 53% | 1020.7 hPa | 0 mm | - | 40 W/m² | - |
| 1788039812 | 23.89° C | 53% | 1020.7 hPa | 0 mm | - | 40 W/m² | - |
| 1788039512 | 23.89° C | 53% | 1020.7 hPa | 0 mm | - | 42 W/m² | - |
| 1788039207 | 23.89° C | 51% | 1020.7 hPa | 0 mm | - | 44 W/m² | - |
| 1788038902 | 24.44° C | 51% | 1020.7 hPa | 0 mm | - | 44 W/m² | - |
| 1788038598 | 25° C | 48% | 1020.7 hPa | 0 mm | - | 46 W/m² | - |
| 1788038296 | 25.56° C | 45% | 1020.6 hPa | 0 mm | - | 191 W/m² | - |
| 1788037992 | 25° C | 46% | 1020.8 hPa | 0 mm | - | 63 W/m² | - |
| 1788037686 | 25.56° C | 45% | 1020.9 hPa | 0 mm | - | 219 W/m² | - |
| 1788037382 | 25° C | 45% | 1020.8 hPa | 0 mm | - | 239 W/m² | - |
| 1788037081 | 25.56° C | 45% | 1020.9 hPa | 0 mm | - | 250 W/m² | - |
| 1788036776 | 25.56° C | 45% | 1020.9 hPa | 0 mm | - | 261 W/m² | - |
| 1788036474 | 25° C | 45% | 1020.9 hPa | 0 mm | - | 281 W/m² | - |
| 1788036168 | 25.56° C | 45% | 1021.1 hPa | 0 mm | - | 296 W/m² | - |
| 1788035868 | 25.56° C | 45% | 1020.9 hPa | 0 mm | - | 317 W/m² | - |
| 1788035563 | 25° C | 47% | 1021 hPa | 0 mm | - | 332 W/m² | - |
* Rain latest hour (hover to see other rain measurements)
** Current wind speed in m/s (hover to see current wind gust speed)